createdAt,value
2022-12-05T00:00:24.081Z,45.73
2022-12-05T00:02:55.424Z,47.43
2022-12-05T00:05:26.754Z,41.43
2022-12-05T00:07:58.138Z,46.27
2022-12-05T00:10:29.455Z,47.97
2022-12-05T00:13:00.790Z,43.10
2022-12-05T00:15:32.085Z,42.37
2022-12-05T00:18:03.807Z,45.10
2022-12-05T00:20:35.169Z,44.00
2022-12-05T00:23:06.461Z,51.17
2022-12-05T00:25:37.856Z,49.37
2022-12-05T00:28:09.122Z,45.97
2022-12-05T00:30:40.832Z,46.10
2022-12-05T00:33:12.224Z,38.40
2022-12-05T00:35:43.482Z,46.33
2022-12-05T00:38:14.853Z,47.17
2022-12-05T00:40:46.139Z,48.93
2022-12-05T00:43:17.421Z,51.57
2022-12-05T00:45:48.739Z,44.97
2022-12-05T00:48:20.069Z,40.70
2022-12-05T00:51:00.545Z,38.77
2022-12-05T00:53:32.732Z,38.23
2022-12-05T00:56:14.531Z,42.77
2022-12-05T00:58:46.764Z,41.07
2022-12-05T01:01:32.831Z,34.97
2022-12-05T01:04:11.313Z,42.05
2022-12-05T01:06:43.338Z,42.70
2022-12-05T01:09:18.823Z,39.33
2022-12-05T01:11:50.604Z,40.08
2022-12-05T01:14:23.928Z,37.13
2022-12-05T01:16:56.140Z,36.80
2022-12-05T01:19:30.097Z,39.53
2022-12-05T01:22:01.665Z,39.63
2022-12-05T01:24:32.946Z,40.77
2022-12-05T01:27:04.304Z,36.47
2022-12-05T01:29:35.644Z,37.00
2022-12-05T01:32:07.016Z,40.87
2022-12-05T01:34:38.430Z,42.27
2022-12-05T01:37:09.785Z,30.43
2022-12-05T01:39:41.165Z,42.13
2022-12-05T01:42:12.847Z,41.00
2022-12-05T01:44:47.136Z,42.07
2022-12-05T01:47:19.088Z,37.47
2022-12-05T01:49:50.455Z,38.20
2022-12-05T01:52:25.305Z,33.43
2022-12-05T01:55:08.534Z,39.70
2022-12-05T01:57:41.007Z,38.20
2022-12-05T02:00:16.311Z,40.37
2022-12-05T02:02:54.595Z,33.00
2022-12-05T02:05:37.519Z,41.13
2022-12-05T02:08:10.740Z,36.60
2022-12-05T02:11:00.243Z,37.53
2022-12-05T02:13:59.567Z,43.83
2022-12-05T02:16:58.657Z,33.37
2022-12-05T02:20:02.860Z,34.97
2022-12-05T02:22:42.225Z,36.13
2022-12-05T02:25:51.689Z,40.50
2022-12-05T02:28:52.984Z,34.57
2022-12-05T02:31:51.475Z,41.17
2022-12-05T02:34:40.404Z,37.77
2022-12-05T02:37:22.787Z,39.47
2022-12-05T02:40:10.594Z,36.83
2022-12-05T02:42:44.858Z,41.67
2022-12-05T02:45:18.753Z,39.23
2022-12-05T02:47:52.782Z,37.23
2022-12-05T02:50:29.121Z,40.43
2022-12-05T02:55:35.477Z,33.50
2022-12-05T02:58:11.688Z,38.93
2022-12-05T03:00:47.361Z,38.03
2022-12-05T03:03:21.963Z,41.42
2022-12-05T03:06:05.163Z,34.90
2022-12-05T03:08:48.521Z,42.97
2022-12-05T03:11:20.260Z,32.20
2022-12-05T03:13:55.891Z,39.07
2022-12-05T03:16:38.726Z,41.25
2022-12-05T03:19:20.069Z,39.10
2022-12-05T03:22:10.644Z,37.57
2022-12-05T03:24:43.129Z,33.50
2022-12-05T03:27:46.418Z,41.17
2022-12-05T03:30:20.563Z,33.90
2022-12-05T03:33:17.759Z,30.60
2022-12-05T03:36:04.413Z,30.75
2022-12-05T03:38:56.652Z,34.08
2022-12-05T03:41:45.007Z,33.20
2022-12-05T03:44:43.088Z,32.37
2022-12-05T03:47:42.249Z,35.33
2022-12-05T03:50:24.240Z,34.07
2022-12-05T03:53:20.351Z,37.10
2022-12-05T03:56:02.221Z,32.73
2022-12-05T03:58:41.610Z,30.63
2022-12-05T04:01:16.672Z,35.33
2022-12-05T04:03:56.416Z,30.20
2022-12-05T04:06:33.175Z,34.63
2022-12-05T04:09:12.381Z,36.07
2022-12-05T04:11:53.195Z,36.03
2022-12-05T04:14:35.349Z,33.20
2022-12-05T04:17:16.919Z,38.63
2022-12-05T04:20:15.670Z,33.03
2022-12-05T04:22:47.295Z,30.20
2022-12-05T04:25:34.128Z,32.03
2022-12-05T04:31:13.297Z,28.48
2022-12-05T04:33:54.622Z,34.70
2022-12-05T04:36:45.070Z,27.83
2022-12-05T04:39:22.807Z,32.00
2022-12-05T04:42:00.054Z,37.03
2022-12-05T04:44:37.933Z,35.73
2022-12-05T04:47:14.772Z,39.20
2022-12-05T04:49:52.166Z,33.10
2022-12-05T04:52:25.688Z,31.50
2022-12-05T04:55:09.496Z,34.77
2022-12-05T04:57:52.219Z,37.87
2022-12-05T05:00:24.205Z,38.50
2022-12-05T05:03:06.941Z,28.47
2022-12-05T05:05:39.660Z,32.37
2022-12-05T05:08:23.408Z,28.43
2022-12-05T05:11:04.569Z,25.00
2022-12-05T05:13:36.235Z,29.67
2022-12-05T05:16:08.760Z,34.13
2022-12-05T05:18:40.168Z,34.80
2022-12-05T05:21:21.400Z,29.53
2022-12-05T05:23:53.442Z,32.63
2022-12-05T05:26:26.317Z,32.10
2022-12-05T05:28:58.357Z,29.00
2022-12-05T05:31:30.305Z,26.43
2022-12-05T05:34:07.633Z,32.03
2022-12-05T05:36:40.832Z,29.30
2022-12-05T05:39:14.872Z,28.53
2022-12-05T05:41:46.154Z,27.00
2022-12-05T05:44:17.404Z,31.00
2022-12-05T05:46:48.815Z,27.23
2022-12-05T05:49:20.126Z,27.20
2022-12-05T05:51:51.385Z,28.87
2022-12-05T05:54:22.679Z,28.47
2022-12-05T05:56:53.992Z,29.47
2022-12-05T05:59:25.332Z,32.10
2022-12-05T06:01:56.665Z,27.97
2022-12-05T06:04:27.968Z,27.00
2022-12-05T06:06:59.301Z,27.50
2022-12-05T06:09:30.713Z,22.97
2022-12-05T06:12:02.006Z,28.97
2022-12-05T06:14:33.403Z,24.50
2022-12-05T06:17:05.135Z,28.37
2022-12-05T06:19:36.396Z,27.50
2022-12-05T06:22:08.136Z,23.67
2022-12-05T06:24:39.443Z,27.53
2022-12-05T06:27:10.766Z,30.13
2022-12-05T06:29:42.227Z,22.90
2022-12-05T06:32:13.564Z,23.07
2022-12-05T06:34:44.805Z,24.43
2022-12-05T06:37:16.086Z,29.33
2022-12-05T06:39:47.377Z,26.80
2022-12-05T06:42:18.748Z,25.90
2022-12-05T06:44:50.033Z,33.20
2022-12-05T06:47:21.296Z,31.23
2022-12-05T06:49:52.553Z,27.77
2022-12-05T06:52:23.839Z,32.57
2022-12-05T06:54:55.118Z,29.80
2022-12-05T06:57:28.498Z,27.70
2022-12-05T07:00:18.450Z,26.03
2022-12-05T07:02:53.167Z,29.87
2022-12-05T07:05:24.711Z,28.53
2022-12-05T07:07:56.130Z,32.53
2022-12-05T07:10:27.460Z,29.47
2022-12-05T07:12:58.753Z,28.60
2022-12-05T07:15:30.012Z,23.73
2022-12-05T07:18:01.352Z,32.07
2022-12-05T07:20:56.081Z,34.70
2022-12-05T07:23:23.904Z,33.40
2022-12-05T07:25:55.422Z,40.40
2022-12-05T07:28:26.780Z,53.90
2022-12-05T07:31:02.347Z,53.70
2022-12-05T07:33:33.716Z,59.53
2022-12-05T07:36:07.485Z,58.03
2022-12-05T07:38:39.313Z,58.60
2022-12-05T07:41:17.642Z,63.77
2022-12-05T07:43:50.878Z,55.40
2022-12-05T07:46:23.033Z,55.13
2022-12-05T07:48:54.744Z,73.13
2022-12-05T07:51:28.096Z,56.83
2022-12-05T07:53:59.889Z,58.87
2022-12-05T07:56:31.260Z,64.40
2022-12-05T07:59:02.864Z,64.10
2022-12-05T08:01:34.329Z,76.80
2022-12-05T08:04:07.660Z,85.87
2022-12-05T08:06:40.800Z,86.03
2022-12-05T08:09:12.078Z,93.63
2022-12-05T08:11:46.947Z,105.73
2022-12-05T08:14:21.542Z,78.67
2022-12-05T08:16:52.959Z,89.77
2022-12-05T08:19:24.299Z,75.63
2022-12-05T08:21:55.632Z,81.67
2022-12-05T08:24:26.960Z,77.00
2022-12-05T08:26:58.232Z,91.57
2022-12-05T08:29:29.514Z,82.67
2022-12-05T08:32:00.778Z,79.40
2022-12-05T08:34:32.070Z,77.27
2022-12-05T08:37:03.524Z,58.77
2022-12-05T08:39:38.693Z,68.70
2022-12-05T08:42:10.351Z,67.67
2022-12-05T08:44:41.607Z,70.60
2022-12-05T08:47:12.856Z,63.17
2022-12-05T08:49:44.165Z,55.83
2022-12-05T08:52:15.501Z,72.40
2022-12-05T08:54:46.756Z,64.73
2022-12-05T08:57:18.064Z,49.47
2022-12-05T08:59:49.316Z,48.57
2022-12-05T09:02:20.645Z,41.20
2022-12-05T09:04:54.083Z,48.53
2022-12-05T09:07:25.637Z,46.40
2022-12-05T09:09:56.892Z,51.47
2022-12-05T09:12:28.147Z,45.90
2022-12-05T09:14:59.687Z,43.17
2022-12-05T09:17:31.120Z,51.73
2022-12-05T09:20:02.429Z,39.57
2022-12-05T09:22:33.735Z,43.20
2022-12-05T09:25:05.942Z,53.47
2022-12-05T09:27:37.240Z,57.70
2022-12-05T09:30:09.330Z,47.90
2022-12-05T09:32:40.607Z,44.53
2022-12-05T09:35:12.224Z,44.80
2022-12-05T09:37:43.474Z,54.53
2022-12-05T09:40:17.163Z,45.13
2022-12-05T09:43:01.225Z,44.67
2022-12-05T09:45:39.739Z,41.97
2022-12-05T09:48:14.663Z,38.53
2022-12-05T09:50:56.180Z,44.33
2022-12-05T09:53:32.320Z,40.93
2022-12-05T09:56:05.286Z,42.55
2022-12-05T09:58:45.489Z,36.67
2022-12-05T10:01:25.613Z,47.30
2022-12-05T10:04:20.832Z,44.67
2022-12-05T10:07:15.560Z,31.60
2022-12-05T10:09:55.296Z,33.33
2022-12-05T10:12:47.719Z,35.60
2022-12-05T10:15:45.708Z,37.27
2022-12-05T10:18:38.730Z,32.50
2022-12-05T10:21:25.729Z,33.13
2022-12-05T10:24:00.608Z,31.33
2022-12-05T10:26:43.750Z,43.27
2022-12-05T10:29:20.721Z,39.83
2022-12-05T10:32:00.932Z,33.77
2022-12-05T10:34:39.447Z,29.33
2022-12-05T10:37:17.558Z,34.07
2022-12-05T10:39:50.416Z,41.87
2022-12-05T10:42:28.329Z,40.33
2022-12-05T10:45:04.722Z,30.47
2022-12-05T10:47:36.669Z,32.80
2022-12-05T10:50:21.625Z,40.07
2022-12-05T10:52:55.542Z,32.27
2022-12-05T10:55:36.129Z,33.77
2022-12-05T10:58:17.844Z,30.60
2022-12-05T11:00:53.144Z,27.73
2022-12-05T11:03:29.243Z,30.52
2022-12-05T11:06:03.018Z,24.20
2022-12-05T11:09:03.011Z,27.53
2022-12-05T11:11:33.174Z,29.43
2022-12-05T11:14:07.818Z,25.07
2022-12-05T11:16:39.485Z,24.63
2022-12-05T11:19:31.243Z,23.80
2022-12-05T11:22:04.831Z,25.30
2022-12-05T11:24:38.298Z,26.83
2022-12-05T11:27:15.724Z,30.83
2022-12-05T11:30:18.783Z,29.87
2022-12-05T11:32:51.384Z,32.70
2022-12-05T11:35:26.223Z,27.60
2022-12-05T11:38:01.875Z,33.77
2022-12-05T11:40:48.208Z,31.25
2022-12-05T11:43:54.710Z,26.52
2022-12-05T11:46:32.071Z,27.37
2022-12-05T11:49:09.295Z,35.10
2022-12-05T11:51:56.747Z,29.17
2022-12-05T11:55:03.767Z,19.00
2022-12-05T11:57:48.894Z,27.17
2022-12-05T12:00:41.418Z,33.73
2022-12-05T12:03:49.664Z,27.90
2022-12-05T12:07:02.755Z,30.87
2022-12-05T12:09:53.823Z,26.83
2022-12-05T12:12:33.702Z,32.90
2022-12-05T12:15:32.381Z,28.03
2022-12-05T12:18:17.991Z,29.23
2022-12-05T12:21:17.183Z,30.23
2022-12-05T12:24:11.358Z,25.07
2022-12-05T12:27:00.185Z,28.00
2022-12-05T12:30:03.816Z,27.93
2022-12-05T12:33:02.967Z,28.30
2022-12-05T12:35:40.607Z,30.63
2022-12-05T12:38:37.080Z,31.50
2022-12-05T12:41:26.397Z,32.22
2022-12-05T12:44:22.733Z,28.37
2022-12-05T12:46:58.565Z,26.83
2022-12-05T12:49:42.020Z,23.05
2022-12-05T12:52:26.641Z,24.50
2022-12-05T12:55:30.251Z,27.37
2022-12-05T12:58:40.286Z,28.03
2022-12-05T13:01:24.327Z,26.93
2022-12-05T13:04:28.295Z,26.63
2022-12-05T13:07:15.914Z,27.40
2022-12-05T13:09:55.626Z,22.87
2022-12-05T13:12:31.315Z,26.73
2022-12-05T13:15:11.512Z,23.10
2022-12-05T13:17:47.313Z,31.10
2022-12-05T13:20:22.974Z,21.80
2022-12-05T13:22:54.975Z,22.80
2022-12-05T13:25:30.803Z,27.77
2022-12-05T13:28:05.262Z,20.63
2022-12-05T13:30:56.530Z,21.93
2022-12-05T13:33:42.008Z,21.80
2022-12-05T13:36:40.340Z,22.50
2022-12-05T13:39:33.583Z,18.87
2022-12-05T13:42:17.883Z,19.23
2022-12-05T13:44:57.356Z,21.03
2022-12-05T13:47:35.406Z,21.13
2022-12-05T13:50:07.146Z,25.60
2022-12-05T13:52:42.889Z,23.63
2022-12-05T13:55:23.224Z,19.40
2022-12-05T13:57:56.505Z,18.07
2022-12-05T14:00:31.113Z,19.10
2022-12-05T14:03:15.847Z,18.83
2022-12-05T14:05:49.653Z,19.00
2022-12-05T14:08:35.596Z,15.90
2022-12-05T14:11:10.901Z,14.68
2022-12-05T14:13:44.027Z,20.87
2022-12-05T14:16:24.195Z,18.20
2022-12-05T14:19:12.241Z,16.23
2022-12-05T14:21:53.046Z,18.60
2022-12-05T14:24:55.541Z,13.90
2022-12-05T14:27:53.679Z,16.30
2022-12-05T14:31:02.667Z,14.40
2022-12-05T14:33:34.095Z,19.80
2022-12-05T14:36:08.286Z,12.37
2022-12-05T14:38:40.090Z,16.77
2022-12-05T14:41:22.439Z,19.80
2022-12-05T14:43:56.489Z,16.87
2022-12-05T14:46:33.396Z,17.20
2022-12-05T14:49:47.051Z,19.70
2022-12-05T14:52:26.463Z,19.90
2022-12-05T14:55:06.011Z,17.87
2022-12-05T14:57:46.901Z,18.70
2022-12-05T15:00:22.605Z,18.10
2022-12-05T15:02:56.491Z,18.58
2022-12-05T15:05:31.784Z,17.80
2022-12-05T15:08:04.758Z,20.87
2022-12-05T15:10:38.558Z,17.33
2022-12-05T15:13:24.483Z,18.47
2022-12-05T15:16:12.739Z,17.95
2022-12-05T15:18:50.309Z,18.63
2022-12-05T15:21:33.431Z,17.03
2022-12-05T15:24:11.718Z,17.20
2022-12-05T15:26:50.549Z,17.43
2022-12-05T15:29:25.333Z,15.83
2022-12-05T15:32:11.947Z,18.33
2022-12-05T15:35:06.079Z,17.08
2022-12-05T15:37:55.135Z,15.10
2022-12-05T15:40:36.913Z,16.10
2022-12-05T15:43:30.834Z,17.43
2022-12-05T15:46:09.410Z,17.63
2022-12-05T15:48:40.779Z,19.23
2022-12-05T15:51:12.242Z,16.97
2022-12-05T15:53:56.155Z,17.23
2022-12-05T15:56:36.009Z,16.40
2022-12-05T15:59:26.090Z,17.60
2022-12-05T16:02:26.278Z,18.00
2022-12-05T16:04:59.995Z,15.13
2022-12-05T16:07:31.648Z,16.00
2022-12-05T16:10:03.183Z,20.97
2022-12-05T16:12:39.691Z,16.43
2022-12-05T16:15:27.914Z,18.53
2022-12-05T16:18:02.126Z,17.23
2022-12-05T16:20:36.268Z,16.50
2022-12-05T16:23:29.832Z,17.27
2022-12-05T16:26:20.079Z,15.20
2022-12-05T16:29:01.617Z,17.90
2022-12-05T16:31:34.069Z,16.60
2022-12-05T16:34:08.399Z,22.80
2022-12-05T16:36:46.806Z,17.63
2022-12-05T16:39:19.997Z,19.83
2022-12-05T16:41:51.542Z,21.27
2022-12-05T16:44:28.930Z,19.03
2022-12-05T16:47:00.254Z,24.17
2022-12-05T16:49:34.451Z,21.33
2022-12-05T16:52:08.832Z,20.73
2022-12-05T16:54:42.532Z,20.60
2022-12-05T16:57:16.198Z,21.30
2022-12-05T16:59:49.344Z,20.67
2022-12-05T17:02:20.844Z,19.63
2022-12-05T17:04:52.557Z,20.60
2022-12-05T17:07:23.869Z,21.33
2022-12-05T17:09:55.462Z,17.93
2022-12-05T17:12:28.170Z,20.87
2022-12-05T17:14:59.731Z,23.43
2022-12-05T17:17:31.133Z,22.83
2022-12-05T17:20:02.440Z,17.57
2022-12-05T17:22:33.784Z,17.57
2022-12-05T17:25:24.623Z,22.30
2022-12-05T17:27:55.891Z,20.73
2022-12-05T17:30:27.243Z,24.13
2022-12-05T17:32:58.497Z,27.87
2022-12-05T17:35:30.426Z,19.87
2022-12-05T17:38:03.525Z,19.33
2022-12-05T17:40:34.954Z,23.73
2022-12-05T17:43:06.265Z,19.03
2022-12-05T17:45:37.661Z,21.53
2022-12-05T17:48:13.864Z,20.17
2022-12-05T17:50:47.348Z,26.20
2022-12-05T17:53:21.017Z,23.87
2022-12-05T17:55:52.920Z,23.80
2022-12-05T17:58:24.224Z,24.53
2022-12-05T18:00:55.764Z,21.80
2022-12-05T18:03:27.359Z,24.47
2022-12-05T18:05:58.920Z,29.00
2022-12-05T18:08:30.335Z,21.20
2022-12-05T18:11:01.717Z,23.17
2022-12-05T18:13:33.713Z,32.30
2022-12-05T18:16:05.433Z,25.53
2022-12-05T18:18:36.789Z,30.60
2022-12-05T18:21:12.572Z,24.47
2022-12-05T18:23:44.043Z,28.40
2022-12-05T18:26:15.420Z,23.03
2022-12-05T18:28:47.436Z,23.40
2022-12-05T18:31:19.334Z,19.93
2022-12-05T18:33:50.841Z,19.90
2022-12-05T18:36:22.222Z,20.17
2022-12-05T18:38:55.387Z,16.10
2022-12-05T18:41:27.209Z,17.33
2022-12-05T18:43:58.552Z,40.37
2022-12-05T18:46:29.933Z,29.83
2022-12-05T18:49:03.499Z,31.57
2022-12-05T18:51:35.140Z,24.03
2022-12-05T18:54:06.886Z,24.53
2022-12-05T18:56:39.980Z,23.83
2022-12-05T18:59:16.919Z,21.80
2022-12-05T19:01:49.739Z,18.37
2022-12-05T19:04:21.538Z,19.00
2022-12-05T19:06:58.917Z,21.43
2022-12-05T19:09:32.204Z,18.30
2022-12-05T19:12:03.779Z,28.47
2022-12-05T19:14:35.183Z,90.27
2022-12-05T19:17:06.615Z,73.60
2022-12-05T19:19:38.093Z,42.23
2022-12-05T19:22:09.449Z,31.57
2022-12-05T19:24:40.779Z,27.70
2022-12-05T19:27:12.195Z,24.73
2022-12-05T19:29:43.512Z,30.47
2022-12-05T19:32:15.023Z,20.10
2022-12-05T19:34:48.288Z,22.10
2022-12-05T19:37:19.633Z,18.33
2022-12-05T19:39:51.647Z,18.03
2022-12-05T19:42:23.071Z,16.80
2022-12-05T19:44:54.342Z,18.33
2022-12-05T19:47:25.608Z,19.03
2022-12-05T19:49:57.339Z,29.97
2022-12-05T19:52:28.853Z,25.27
2022-12-05T19:55:00.136Z,24.17
2022-12-05T19:57:31.671Z,33.80
2022-12-05T20:00:03.974Z,28.40
2022-12-05T20:02:39.994Z,37.67
2022-12-05T20:05:11.672Z,28.20
2022-12-05T20:07:43.008Z,28.20
2022-12-05T20:10:14.420Z,21.50
2022-12-05T20:12:45.874Z,28.03
2022-12-05T20:15:17.415Z,19.37
2022-12-05T20:17:52.998Z,29.80
2022-12-05T20:20:24.695Z,17.90
2022-12-05T20:22:56.084Z,21.20
2022-12-05T20:25:27.366Z,20.47
2022-12-05T20:27:58.776Z,21.87
2022-12-05T20:30:30.682Z,19.33
2022-12-05T20:33:02.084Z,21.17
2022-12-05T20:35:37.145Z,21.40
2022-12-05T20:38:08.437Z,19.47
2022-12-05T20:40:39.815Z,19.47
2022-12-05T20:43:11.230Z,17.93
2022-12-05T20:45:42.514Z,19.60
2022-12-05T20:48:13.826Z,17.57
2022-12-05T20:50:45.125Z,17.33
2022-12-05T20:53:16.445Z,16.33
2022-12-05T20:55:47.831Z,15.83
2022-12-05T20:58:19.146Z,22.70
2022-12-05T21:00:57.691Z,20.13
2022-12-05T21:03:29.186Z,19.80
2022-12-05T21:06:00.472Z,18.03
2022-12-05T21:08:31.808Z,20.90
2022-12-05T21:11:03.370Z,23.27
2022-12-05T21:13:35.508Z,23.97
2022-12-05T21:16:16.501Z,20.73
2022-12-05T21:18:48.501Z,20.63
2022-12-05T21:21:22.293Z,17.30
2022-12-05T21:23:59.490Z,17.60
2022-12-05T21:26:33.539Z,20.43
2022-12-05T21:29:06.819Z,23.07
2022-12-05T21:31:40.761Z,16.90
2022-12-05T21:34:17.393Z,19.27
2022-12-05T21:36:49.177Z,15.17
2022-12-05T21:39:20.770Z,21.40
2022-12-05T21:41:52.153Z,31.73
2022-12-05T21:44:23.521Z,44.57
2022-12-05T21:46:54.832Z,36.30
2022-12-05T21:49:26.251Z,39.03
2022-12-05T21:51:57.499Z,38.47
2022-12-05T21:54:30.315Z,51.80
2022-12-05T21:57:01.568Z,37.93
2022-12-05T21:59:32.924Z,46.37
2022-12-05T22:02:04.297Z,41.90
2022-12-05T22:04:35.589Z,46.73
2022-12-05T22:07:06.878Z,49.97
2022-12-05T22:09:38.178Z,39.00
2022-12-05T22:12:09.485Z,91.47
2022-12-05T22:14:40.749Z,53.23
2022-12-05T22:17:12.027Z,49.63
2022-12-05T22:19:43.392Z,38.27
2022-12-05T22:22:14.727Z,59.37
2022-12-05T22:24:46.040Z,64.97
2022-12-05T22:27:17.310Z,66.47
2022-12-05T22:29:52.697Z,68.90
2022-12-05T22:32:24.254Z,52.97
2022-12-05T22:34:59.286Z,35.77
2022-12-05T22:37:34.671Z,40.97
2022-12-05T22:40:06.698Z,51.33
2022-12-05T22:42:37.978Z,42.00
2022-12-05T22:45:12.371Z,28.90
2022-12-05T22:47:43.842Z,25.37
2022-12-05T22:50:15.223Z,21.37
2022-12-05T22:52:46.548Z,21.73
2022-12-05T22:55:17.922Z,22.90
2022-12-05T22:57:49.177Z,22.87
2022-12-05T23:00:20.665Z,23.27
2022-12-05T23:02:52.553Z,18.40
2022-12-05T23:05:23.875Z,17.07
2022-12-05T23:07:55.261Z,21.33
2022-12-05T23:10:26.785Z,23.27
2022-12-05T23:12:58.167Z,21.03
2022-12-05T23:15:29.575Z,34.03
2022-12-05T23:18:00.839Z,31.00
2022-12-05T23:20:32.859Z,25.03
2022-12-05T23:23:04.183Z,24.30
2022-12-05T23:25:35.521Z,22.20
2022-12-05T23:28:06.790Z,28.73
2022-12-05T23:30:38.063Z,27.40
2022-12-05T23:33:09.520Z,24.67
2022-12-05T23:35:40.785Z,21.57
2022-12-05T23:38:12.076Z,22.27
2022-12-05T23:40:43.339Z,21.20
2022-12-05T23:43:14.635Z,22.13
2022-12-05T23:45:45.907Z,24.03
2022-12-05T23:48:17.264Z,25.20
2022-12-05T23:51:07.181Z,21.60
2022-12-05T23:53:40.915Z,20.17
2022-12-05T23:56:15.762Z,21.43
2022-12-05T23:58:47.295Z,28.80
